Time;durP1;ratioP1;P1;durP2;ratioP2;P2;SDS_P1;SDS_P2;PMS_P1;PMS_P2;Temp;Humidity;BMP_temperature;BMP_pressure;BME280_temperature;BME280_humidity;BME280_pressure;Samples;Min_cycle;Max_cycle;Signal;HPM_P1;HPM_P2
2021/04/27 00:01:15;;;;;;;10.40;8.68;;;;;;;14.13;62.28;94073.45;827347;71;32714;-79
2021/04/27 00:16:17;;;;;;;8.15;7.33;;;;;;;14.13;63.51;94086.65;828827;71;32824;-77
2021/04/27 00:31:09;;;;;;;9.38;7.00;;;;;;;13.89;63.65;94083.28;827774;71;29785;-76
2021/04/27 00:46:17;;;;;;;9.68;6.95;;;;;;;13.76;63.85;94079.78;817358;71;32768;-77
2021/04/27 01:01:11;;;;;;;8.80;7.05;;;;;;;13.71;62.67;94031.97;833850;71;30263;-77
2021/04/27 01:16:10;;;;;;;8.53;6.30;;;;;;;13.55;63.89;94057.33;834873;71;29779;-77
2021/04/27 01:31:10;;;;;;;7.15;6.33;;;;;;;13.66;62.62;94037.41;827951;71;30303;-78
2021/04/27 01:46:14;;;;;;;6.58;5.50;;;;;;;13.83;61.91;94029.97;833458;71;33259;-75
2021/04/27 02:01:15;;;;;;;6.85;6.15;;;;;;;13.88;61.53;94021.86;827092;71;32741;-76
2021/04/27 02:16:09;;;;;;;6.22;5.62;;;;;;;13.78;63.21;94029.59;807683;71;29770;-76
2021/04/27 02:31:12;;;;;;;7.85;5.50;;;;;;;13.32;65.22;94021.20;827678;71;30353;-78
2021/04/27 02:46:19;;;;;;;6.53;5.92;;;;;;;13.41;65.83;94011.41;827083;71;33490;-76
2021/04/27 03:01:44;;;;;;;6.47;5.80;;;;;;;13.61;63.00;94000.70;828967;71;31433;-79
2021/04/27 03:16:14;;;;;;;5.97;5.47;;;;;;;13.77;63.58;94026.73;827463;71;32632;-78
2021/04/27 03:31:10;;;;;;;7.67;6.85;;;;;;;13.92;64.55;94010.89;828358;71;31316;-78
2021/04/27 03:46:09;;;;;;;7.03;6.42;;;;;;;13.97;64.65;94008.61;827601;71;30418;-76
2021/04/27 04:01:09;;;;;;;11.90;9.10;;;;;;;13.58;66.37;94037.70;828086;71;30745;-75
2021/04/27 04:16:08;;;;;;;8.90;7.78;;;;;;;13.33;67.92;94047.24;828280;71;29702;-77
2021/04/27 04:31:15;;;;;;;9.73;8.33;;;;;;;13.43;68.30;94035.03;828846;71;32795;-76
2021/04/27 04:46:09;;;;;;;11.30;8.70;;;;;;;13.13;70.84;94013.10;827523;71;30398;-75
2021/04/27 05:01:15;;;;;;;13.58;9.90;;;;;;;13.45;71.52;94007.05;826912;71;32713;-75
2021/04/27 05:16:09;;;;;;;10.18;8.53;;;;;;;14.08;68.92;94021.66;827553;71;29834;-77
2021/04/27 05:31:15;;;;;;;11.35;9.50;;;;;;;14.89;66.78;93991.88;826744;71;33056;-80
2021/04/27 06:01:55;;;;;;;;;;;;;;;;;;;;;
2021/04/27 06:31:10;;;;;;;10.78;8.60;;;;;;;17.32;56.42;94001.89;833611;71;31525;-81
2021/04/27 06:46:27;;;;;;;10.18;8.75;;;;;;;16.41;56.91;94012.57;794566;74;32947;-82
2021/04/27 07:01:30;;;;;;;;;;;;;;;;;;;;;
2021/04/27 07:16:51;;;;;;;;;;;;;;;;;;;;;
2021/04/27 07:31:17;;;;;;;11.08;8.88;;;;;;;17.58;53.09;94018.61;793239;74;32939;-84
2021/04/27 07:46:14;;;;;;;9.58;8.68;;;;;;;18.01;51.29;94017.70;827354;71;32769;-83
2021/04/27 08:01:14;;;;;;;9.58;7.72;;;;;;;17.96;50.91;93984.81;834205;71;32771;-83
2021/04/27 08:16:10;;;;;;;11.55;7.85;;;;;;;18.98;48.88;93976.36;832166;71;30248;-85
2021/04/27 08:31:10;;;;;;;10.00;8.55;;;;;;;20.65;45.29;93983.71;828289;71;29281;-82
2021/04/27 09:31:35;;;;;;;9.20;8.30;;;;;;;21.21;43.28;93944.06;829194;70;31887;-80
2021/04/27 09:46:12;;;;;;;9.00;8.20;;;;;;;19.54;45.02;93912.42;829293;71;29325;-75
2021/04/27 10:01:18;;;;;;;8.70;7.72;;;;;;;18.38;47.67;93871.80;833767;71;32103;-76
2021/04/27 10:16:08;;;;;;;8.25;7.08;;;;;;;18.52;47.43;93903.94;833590;71;29153;-74
2021/04/27 10:31:16;;;;;;;10.93;7.97;;;;;;;18.73;47.37;93912.83;827780;71;29698;-74
2021/04/27 10:46:22;;;;;;;8.60;7.75;;;;;;;18.49;47.76;93913.95;827090;71;32322;-75
2021/04/27 11:01:25;;;;;;;8.45;7.55;;;;;;;18.06;49.31;93901.73;826985;71;31799;-75
2021/04/27 11:16:30;;;;;;;6.42;5.62;;;;;;;17.36;51.98;93868.25;819975;71;31742;-75
2021/04/27 11:31:18;;;;;;;5.20;4.70;;;;;;;17.65;50.99;93850.28;828601;71;32286;-75
2021/04/27 11:46:14;;;;;;;5.72;5.03;;;;;;;18.26;51.25;93837.43;819901;71;32062;-75
2021/04/27 12:01:21;;;;;;;5.97;4.33;;;;;;;18.71;45.71;93836.67;828397;71;32353;-74
2021/04/27 12:16:11;;;;;;;6.80;5.10;;;;;;;18.58;47.03;93835.33;820708;71;28724;-76
2021/04/27 12:31:10;;;;;;;5.87;4.05;;;;;;;18.32;46.08;93811.55;829277;71;29510;-74
2021/04/27 12:46:16;;;;;;;6.15;4.55;;;;;;;17.90;48.58;93838.84;827369;71;32352;-75
2021/04/27 13:01:11;;;;;;;4.50;4.10;;;;;;;17.36;48.90;93804.59;828222;71;29707;-76
2021/04/27 13:16:08;;;;;;;5.33;4.17;;;;;;;17.32;51.74;93818.34;833509;71;30166;-76
2021/04/27 13:31:09;;;;;;;6.50;5.00;;;;;;;16.91;54.48;93819.16;826403;70;29999;-74
2021/04/27 13:46:21;;;;;;;6.58;5.80;;;;;;;16.61;55.80;93861.95;833324;71;31957;-76
2021/04/27 14:01:15;;;;;;;6.30;5.17;;;;;;;16.25;58.35;93837.02;833377;71;32784;-76
2021/04/27 14:16:13;;;;;;;7.30;6.17;;;;;;;15.98;62.22;93845.97;827578;71;32626;-78
2021/04/27 14:31:09;;;;;;;4.47;4.17;;;;;;;15.95;60.95;93846.62;823346;71;29915;-75
2021/04/27 14:46:11;;;;;;;8.35;5.40;;;;;;;15.62;61.30;93810.57;823089;71;30629;-75
2021/04/27 14:47:18;;;;;;;8.18;5.30;;;;;;;15.55;61.63;93815.12;809626;73;26261;-75
2021/04/27 14:48:24;;;;;;;6.12;5.50;;;;;;;15.54;60.98;93818.09;809493;73;26751;-76
2021/04/27 14:49:28;;;;;;;7.65;5.70;;;;;;;15.62;61.47;93830.41;809264;73;26318;-76
2021/04/27 14:50:33;;;;;;;6.12;5.42;;;;;;;15.69;61.68;93832.47;817107;72;26284;-77
2021/04/27 14:51:48;;;;;;;6.20;5.60;;;;;;;15.74;61.91;93825.10;821138;72;26284;-76
2021/04/27 14:52:55;;;;;;;6.92;5.20;;;;;;;15.83;62.12;93823.62;808472;72;26268;-75
2021/04/27 14:54:01;;;;;;;6.75;5.58;;;;;;;15.90;61.95;93825.16;800424;74;26653;-76
2021/04/27 14:55:13;;;;;;;6.62;5.53;;;;;;;15.95;61.10;93834.16;800164;74;26327;-76
2021/04/27 14:56:18;;;;;;;5.70;4.53;;;;;;;16.02;60.83;93826.98;800654;74;26253;-76
2021/04/27 14:57:21;;;;;;;5.90;4.97;;;;;;;16.10;61.14;93833.21;800309;74;26777;-77
2021/04/27 14:58:31;;;;;;;7.55;4.75;;;;;;;16.17;60.59;93834.17;784800;75;26841;-74
2021/04/27 14:59:36;;;;;;;6.95;5.10;;;;;;;16.23;60.35;93839.99;786990;74;26383;-75
2021/04/27 15:01:43;;;;;;;5.50;5.00;;;;;;;16.38;60.97;93843.23;827906;71;30459;-76
2021/04/27 21:16:09;;;;;;;23.10;17.62;;;;;;;14.17;69.48;93846.12;825474;71;29697;-78
2021/04/27 21:31:15;;;;;;;19.23;14.03;;;;;;;14.03;69.58;93861.72;827843;71;32782;-78
2021/04/27 21:46:42;;;;;;;15.38;12.35;;;;;;;13.88;69.47;93883.40;829371;71;32774;-79
2021/04/27 22:01:15;;;;;;;18.67;13.70;;;;;;;13.66;70.23;93879.78;817172;71;33275;-76
2021/04/27 22:16:15;;;;;;;17.87;14.05;;;;;;;13.59;70.56;93867.13;827486;71;33311;-78
2021/04/27 22:31:08;;;;;;;17.15;14.00;;;;;;;13.52;70.62;93885.30;828222;71;29695;-80
2021/04/27 22:46:15;;;;;;;14.60;11.73;;;;;;;13.36;69.95;93879.81;821370;71;33270;-77
2021/04/27 23:01:19;;;;;;;12.88;10.98;;;;;;;13.18;69.29;93872.56;827732;71;32803;-79
2021/04/27 23:16:09;;;;;;;15.98;11.57;;;;;;;12.95;70.31;93897.83;821004;71;29756;-78
2021/04/27 23:31:14;;;;;;;12.90;10.70;;;;;;;12.80;70.51;93895.19;829727;71;31985;-78
